createdAt,value
2019-04-22T00:00:55.979Z,6.90
2019-04-22T00:03:36.098Z,7.10
2019-04-22T00:06:14.915Z,7.90
2019-04-22T00:08:49.159Z,7.90
2019-04-22T00:11:27.258Z,6.80
2019-04-22T00:14:00.685Z,8.23
2019-04-22T00:16:27.525Z,8.37
2019-04-22T00:21:25.768Z,6.93
2019-04-22T00:23:51.762Z,7.67
2019-04-22T00:26:26.070Z,6.70
2019-04-22T00:31:40.501Z,7.03
2019-04-22T00:34:11.141Z,7.03
2019-04-22T00:36:41.699Z,6.93
2019-04-22T00:39:16.393Z,7.47
2019-04-22T00:41:43.817Z,7.90
2019-04-22T00:44:15.374Z,7.33
2019-04-22T00:46:45.974Z,7.87
2019-04-22T00:50:01.592Z,7.55
2019-04-22T00:54:17.047Z,11.70
2019-04-22T00:56:42.319Z,7.40
2019-04-22T00:59:12.760Z,7.00
2019-04-22T01:01:47.085Z,7.13
2019-04-22T01:04:23.035Z,9.90
2019-04-22T01:06:41.628Z,6.40
2019-04-22T01:09:10.796Z,8.43
2019-04-22T01:11:37.781Z,7.63
2019-04-22T01:14:16.027Z,8.53
2019-04-22T01:16:43.111Z,7.62
2019-04-22T01:19:16.630Z,6.90
2019-04-22T01:24:12.121Z,9.60
2019-04-22T01:26:41.783Z,6.92
2019-04-22T01:29:09.447Z,8.23
2019-04-22T01:31:30.852Z,7.00
2019-04-22T01:34:11.409Z,8.40
2019-04-22T01:36:52.812Z,10.00
2019-04-22T01:39:21.530Z,7.50
2019-04-22T01:44:34.461Z,8.47
2019-04-22T01:47:00.050Z,7.93
2019-04-22T01:49:27.313Z,10.33
2019-04-22T01:52:11.434Z,8.80
2019-04-22T01:54:35.676Z,9.13
2019-04-22T01:56:57.117Z,9.63
2019-04-22T01:59:20.697Z,7.23
2019-04-22T02:01:57.412Z,8.70
2019-04-22T02:04:35.079Z,6.73
2019-04-22T02:07:01.929Z,8.73
2019-04-22T02:09:38.384Z,7.93
2019-04-22T02:12:00.212Z,8.03
2019-04-22T02:14:34.075Z,6.87
2019-04-22T02:17:01.327Z,8.27
2019-04-22T02:22:04.553Z,7.03
2019-04-22T02:24:35.266Z,7.80
2019-04-22T02:27:09.250Z,6.87
2019-04-22T02:29:34.732Z,7.57
2019-04-22T02:32:10.624Z,7.67
2019-04-22T02:34:40.190Z,7.83
2019-04-22T02:37:04.899Z,7.00
2019-04-22T02:42:10.656Z,8.27
2019-04-22T02:44:35.851Z,10.77
2019-04-22T02:47:20.560Z,7.40
2019-04-22T02:49:37.477Z,8.13
2019-04-22T02:52:09.394Z,9.00
2019-04-22T02:54:50.998Z,7.73
2019-04-22T02:57:14.055Z,9.10
2019-04-22T02:59:39.307Z,7.63
2019-04-22T03:02:14.418Z,8.37
2019-04-22T03:04:37.227Z,7.80
2019-04-22T03:07:05.538Z,7.90
2019-04-22T03:09:41.069Z,8.97
2019-04-22T03:14:46.019Z,10.37
2019-04-22T03:17:17.705Z,9.50
2019-04-22T03:19:59.266Z,8.03
2019-04-22T03:22:18.632Z,8.03
2019-04-22T03:25:25.746Z,8.37
2019-04-22T03:27:10.645Z,8.30
2019-04-22T03:37:49.446Z,8.77
2019-04-22T03:42:52.493Z,8.53
2019-04-22T03:45:19.258Z,8.17
2019-04-22T03:47:43.581Z,7.90
2019-04-22T03:50:25.239Z,7.90
2019-04-22T03:52:43.065Z,7.17
2019-04-22T03:57:49.676Z,7.42
2019-04-22T04:00:17.836Z,7.90
2019-04-22T04:02:45.825Z,9.90
2019-04-22T04:05:29.644Z,8.50
2019-04-22T04:12:51.182Z,9.28
2019-04-22T04:30:29.062Z,8.83
2019-04-22T04:35:28.242Z,7.80
2019-04-22T04:37:55.166Z,9.03
2019-04-22T04:40:20.757Z,7.83
2019-04-22T04:42:46.021Z,7.97
2019-04-22T04:50:18.263Z,8.50
2019-04-22T04:55:25.840Z,8.13
2019-04-22T04:58:01.047Z,7.80
2019-04-22T05:05:21.113Z,8.00
2019-04-22T05:15:18.387Z,8.00
2019-04-22T05:17:54.985Z,7.77
2019-04-22T05:20:26.943Z,8.83
2019-04-22T05:27:49.181Z,8.30
2019-04-22T05:30:23.565Z,9.03
2019-04-22T05:32:43.035Z,8.40
2019-04-22T05:35:14.334Z,8.33
2019-04-22T05:37:50.008Z,8.17
2019-04-22T05:40:20.260Z,8.40
2019-04-22T05:42:46.155Z,9.53
2019-04-22T05:45:14.880Z,11.00
2019-04-22T05:47:50.935Z,7.70
2019-04-22T05:50:13.189Z,8.17
2019-04-22T05:52:49.809Z,9.67
2019-04-22T05:55:28.507Z,8.00
2019-04-22T05:57:45.669Z,7.80
2019-04-22T06:00:23.122Z,8.00
2019-04-22T06:02:52.963Z,6.80
2019-04-22T06:05:17.155Z,7.90
2019-04-22T06:07:53.809Z,8.20
2019-04-22T06:10:26.315Z,9.97
2019-04-22T06:12:48.020Z,8.07
2019-04-22T06:15:27.158Z,8.30
2019-04-22T06:18:07.670Z,11.73
2019-04-22T06:20:33.846Z,8.10
2019-04-22T06:25:39.370Z,8.47
2019-04-22T06:28:07.154Z,8.10
2019-04-22T06:30:48.963Z,10.03
2019-04-22T06:33:01.138Z,11.03
2019-04-22T06:45:35.353Z,8.70
2019-04-22T06:48:08.032Z,10.27
2019-04-22T06:50:43.440Z,9.83
2019-04-22T06:53:09.003Z,8.33
2019-04-22T06:58:04.888Z,8.63
2019-04-22T07:05:43.406Z,7.83
2019-04-22T07:08:30.357Z,8.20
2019-04-22T07:10:43.435Z,9.53
2019-04-22T07:13:10.992Z,7.90
2019-04-22T07:15:50.362Z,8.93
2019-04-22T07:18:21.210Z,8.17
2019-04-22T07:20:48.087Z,7.93
2019-04-22T07:23:13.766Z,7.53
2019-04-22T07:30:46.062Z,8.00
2019-04-22T07:33:32.478Z,7.70
2019-04-22T07:35:56.133Z,10.37
2019-04-22T07:38:20.578Z,7.87
2019-04-22T07:40:50.357Z,6.90
2019-04-22T07:43:19.900Z,8.15
2019-04-22T07:46:00.676Z,13.95
2019-04-22T07:48:26.479Z,8.43
2019-04-22T07:51:05.550Z,8.10
2019-04-22T07:53:19.302Z,7.70
2019-04-22T07:55:50.826Z,9.67
2019-04-22T07:58:18.729Z,7.17
2019-04-22T08:00:43.784Z,6.60
2019-04-22T08:03:18.372Z,7.83
2019-04-22T08:05:58.547Z,8.80
2019-04-22T08:08:25.809Z,7.17
2019-04-22T08:10:49.957Z,8.10
2019-04-22T08:13:17.236Z,7.30
2019-04-22T08:15:55.321Z,7.00
2019-04-22T08:18:22.178Z,6.23
2019-04-22T08:23:23.754Z,6.50
2019-04-22T08:25:49.258Z,8.43
2019-04-22T08:28:26.303Z,5.17
2019-04-22T08:30:53.586Z,6.47
2019-04-22T08:33:22.115Z,6.00
2019-04-22T08:36:06.066Z,5.63
2019-04-22T08:38:31.298Z,5.17
2019-04-22T08:41:23.009Z,5.05
2019-04-22T08:46:17.077Z,5.10
2019-04-22T08:48:47.834Z,7.80
2019-04-22T08:51:23.412Z,5.13
2019-04-22T08:53:57.418Z,4.77
2019-04-22T08:56:29.479Z,6.50
2019-04-22T08:58:50.717Z,6.50
2019-04-22T09:01:17.733Z,4.50
2019-04-22T09:03:47.040Z,4.83
2019-04-22T09:08:50.194Z,5.00
2019-04-22T09:11:20.177Z,5.67
2019-04-22T09:13:49.850Z,4.60
2019-04-22T09:16:20.711Z,5.30
2019-04-22T09:18:52.731Z,4.97
2019-04-22T09:23:54.016Z,4.80
2019-04-22T09:26:23.945Z,5.67
2019-04-22T09:28:50.960Z,6.47
2019-04-22T09:31:19.544Z,7.90
2019-04-22T09:33:59.327Z,5.20
2019-04-22T09:36:24.356Z,4.87
2019-04-22T09:38:49.231Z,7.57
2019-04-22T09:41:18.711Z,4.70
2019-04-22T09:43:52.350Z,8.30
2019-04-22T09:46:25.004Z,3.97
2019-04-22T09:48:51.863Z,4.73
2019-04-22T09:51:18.942Z,6.37
2019-04-22T09:56:25.821Z,4.67
2019-04-22T09:58:50.801Z,5.37
2019-04-22T10:01:32.112Z,5.97
2019-04-22T10:03:56.488Z,6.30
2019-04-22T10:06:29.327Z,6.07
2019-04-22T10:09:27.187Z,5.57
2019-04-22T10:11:27.920Z,4.47
2019-04-22T10:13:53.714Z,9.03
2019-04-22T10:16:27.100Z,5.37
2019-04-22T10:18:54.463Z,4.40
2019-04-22T10:21:27.262Z,5.73
2019-04-22T10:23:53.267Z,4.30
2019-04-22T10:26:27.868Z,6.53
2019-04-22T10:31:23.824Z,4.80
2019-04-22T10:33:46.498Z,4.53
2019-04-22T10:35:59.362Z,5.80
2019-04-22T10:38:28.399Z,7.30
2019-04-22T10:40:58.363Z,5.30
2019-04-22T10:43:27.575Z,5.53
2019-04-22T10:45:56.149Z,6.63
2019-04-22T10:48:26.104Z,5.13
2019-04-22T10:50:54.832Z,4.83
2019-04-22T10:53:23.819Z,4.97
2019-04-22T10:55:52.376Z,5.97
2019-04-22T10:58:21.057Z,6.75
2019-04-22T11:00:52.255Z,5.63
2019-04-22T11:03:22.327Z,7.43
2019-04-22T11:05:53.788Z,7.23
2019-04-22T11:08:31.975Z,4.90
2019-04-22T11:11:07.160Z,6.63
2019-04-22T11:13:22.224Z,4.40
2019-04-22T11:15:51.038Z,5.17
2019-04-22T11:18:19.932Z,4.07
2019-04-22T11:20:49.534Z,5.37
2019-04-22T11:23:18.699Z,5.43
2019-04-22T11:25:47.988Z,8.30
2019-04-22T11:28:17.807Z,4.55
2019-04-22T11:30:48.119Z,6.60
2019-04-22T11:33:18.291Z,5.20
2019-04-22T11:35:47.959Z,6.00
2019-04-22T11:38:17.251Z,6.33
2019-04-22T11:40:51.734Z,5.80
2019-04-22T11:43:16.438Z,4.67
2019-04-22T11:45:45.155Z,5.10
2019-04-22T11:48:13.662Z,5.90
2019-04-22T11:50:42.199Z,5.07
2019-04-22T11:53:11.096Z,4.40
2019-04-22T11:55:40.610Z,4.23
2019-04-22T11:58:10.589Z,8.80
2019-04-22T12:00:41.008Z,4.00
2019-04-22T12:03:09.624Z,5.90
2019-04-22T12:05:39.622Z,4.30
2019-04-22T12:08:09.263Z,4.93
2019-04-22T12:10:46.890Z,4.93
2019-04-22T12:13:08.127Z,5.93
2019-04-22T12:15:37.303Z,5.60
2019-04-22T12:18:07.048Z,4.47
2019-04-22T12:20:36.859Z,7.37
2019-04-22T12:23:07.399Z,5.97
2019-04-22T12:25:47.915Z,4.50
2019-04-22T12:28:08.981Z,5.07
2019-04-22T12:30:37.494Z,3.90
2019-04-22T12:33:10.273Z,4.50
2019-04-22T12:35:36.984Z,5.10
2019-04-22T12:38:08.628Z,4.97
2019-04-22T12:40:44.726Z,4.10
2019-04-22T12:43:06.672Z,6.53
2019-04-22T12:45:36.345Z,4.87
2019-04-22T12:48:06.252Z,4.30
2019-04-22T12:50:40.240Z,3.90
2019-04-22T12:53:10.614Z,4.83
2019-04-22T12:55:35.654Z,4.23
2019-04-22T12:58:05.324Z,5.70
2019-04-22T13:00:34.434Z,3.63
2019-04-22T13:03:03.120Z,4.83
2019-04-22T13:05:33.291Z,3.77
2019-04-22T13:08:02.080Z,5.13
2019-04-22T13:10:41.683Z,4.40
2019-04-22T13:13:00.950Z,3.80
2019-04-22T13:15:30.715Z,4.90
2019-04-22T13:18:06.129Z,6.80
2019-04-22T13:20:30.433Z,7.30
2019-04-22T13:22:59.059Z,3.73
2019-04-22T13:25:29.962Z,4.13
2019-04-22T13:27:57.738Z,5.87
2019-04-22T13:30:28.280Z,5.43
2019-04-22T13:32:56.893Z,4.20
2019-04-22T13:35:26.169Z,4.37
2019-04-22T13:37:57.233Z,5.70
2019-04-22T13:40:26.517Z,3.87
2019-04-22T13:42:55.599Z,4.83
2019-04-22T13:45:25.549Z,4.07
2019-04-22T13:48:11.194Z,6.90
2019-04-22T13:53:42.966Z,4.27
2019-04-22T13:55:51.365Z,4.33
2019-04-22T13:58:08.249Z,4.13
2019-04-22T14:00:34.230Z,5.75
2019-04-22T14:03:18.264Z,4.53
2019-04-22T14:05:48.823Z,4.20
2019-04-22T14:08:18.457Z,4.30
2019-04-22T14:10:48.417Z,4.40
2019-04-22T14:13:16.993Z,5.97
2019-04-22T14:15:46.590Z,4.75
2019-04-22T14:18:15.185Z,4.58
2019-04-22T14:20:44.968Z,4.35
2019-04-22T14:23:14.305Z,4.28
2019-04-22T14:25:43.787Z,4.47
2019-04-22T14:28:17.369Z,4.28
2019-04-22T14:30:42.634Z,6.05
2019-04-22T14:33:12.160Z,4.75
2019-04-22T14:35:41.597Z,4.05
2019-04-22T14:38:10.199Z,3.65
2019-04-22T14:40:40.921Z,4.45
2019-04-22T14:43:31.723Z,5.85
2019-04-22T14:46:12.318Z,6.08
2019-04-22T14:48:37.340Z,5.55
2019-04-22T14:50:56.288Z,4.40
2019-04-22T14:53:32.314Z,4.30
2019-04-22T14:55:40.371Z,4.25
2019-04-22T14:58:09.111Z,4.20
2019-04-22T15:00:38.184Z,6.43
2019-04-22T15:03:08.187Z,4.10
2019-04-22T15:05:37.309Z,3.80
2019-04-22T15:08:07.071Z,4.03
2019-04-22T15:10:36.064Z,5.63
2019-04-22T15:13:05.457Z,3.40
2019-04-22T15:15:46.960Z,3.97
2019-04-22T15:18:17.545Z,4.73
2019-04-22T15:20:51.004Z,4.70
2019-04-22T15:23:17.948Z,3.50
2019-04-22T15:25:46.475Z,4.37
2019-04-22T15:28:15.395Z,3.72
2019-04-22T15:30:43.965Z,3.60
2019-04-22T15:33:12.562Z,4.43
2019-04-22T15:35:41.143Z,6.03
2019-04-22T15:38:11.141Z,4.60
2019-04-22T15:40:40.691Z,4.43
2019-04-22T15:43:10.841Z,3.37
2019-04-22T15:45:41.108Z,3.50
2019-04-22T15:48:10.274Z,4.93
2019-04-22T15:50:40.538Z,5.33
2019-04-22T15:53:09.764Z,3.80
2019-04-22T15:55:38.970Z,3.23
2019-04-22T15:58:08.066Z,2.90
2019-04-22T16:00:49.077Z,4.40
2019-04-22T16:03:09.121Z,4.13
2019-04-22T16:05:36.950Z,4.17
2019-04-22T16:08:06.693Z,3.50
2019-04-22T16:10:35.799Z,7.00
2019-04-22T16:13:12.548Z,4.53
2019-04-22T16:15:34.531Z,3.30
2019-04-22T16:18:04.796Z,4.77
2019-04-22T16:20:34.349Z,4.13
2019-04-22T16:23:10.453Z,3.17
2019-04-22T16:25:59.148Z,6.00
2019-04-22T16:28:29.116Z,3.87
2019-04-22T16:30:59.479Z,3.30
2019-04-22T16:33:28.226Z,3.30
2019-04-22T16:35:56.659Z,5.07
2019-04-22T16:38:25.094Z,3.45
2019-04-22T16:40:54.728Z,4.67
2019-04-22T16:43:24.609Z,3.83
2019-04-22T16:45:53.764Z,3.40
2019-04-22T16:48:22.747Z,4.15
2019-04-22T16:50:52.681Z,3.53
2019-04-22T16:53:23.204Z,3.27
2019-04-22T16:55:52.860Z,3.70
2019-04-22T16:58:22.980Z,6.00
2019-04-22T17:00:52.517Z,4.57
2019-04-22T17:03:40.575Z,4.37
2019-04-22T17:06:21.445Z,6.80
2019-04-22T17:08:50.907Z,3.97
2019-04-22T17:11:20.207Z,3.40
2019-04-22T17:13:50.180Z,3.40
2019-04-22T17:16:20.083Z,3.77
2019-04-22T17:18:49.952Z,3.60
2019-04-22T17:21:19.653Z,3.30
2019-04-22T17:23:49.665Z,3.87
2019-04-22T17:26:18.830Z,6.37
2019-04-22T17:28:47.420Z,3.47
2019-04-22T17:31:16.429Z,3.90
2019-04-22T17:33:45.011Z,4.03
2019-04-22T17:36:14.016Z,3.92
2019-04-22T17:38:50.857Z,3.23
2019-04-22T17:41:24.381Z,3.80
2019-04-22T17:44:15.277Z,3.43
2019-04-22T17:46:33.648Z,4.40
2019-04-22T17:49:12.277Z,13.47
2019-04-22T17:51:37.381Z,5.23
2019-04-22T17:54:09.448Z,7.03
2019-04-22T17:56:37.534Z,5.05
2019-04-22T17:59:10.221Z,6.40
2019-04-22T18:01:39.741Z,4.72
2019-04-22T18:03:56.921Z,3.13
2019-04-22T18:06:48.883Z,3.30
2019-04-22T18:09:12.387Z,3.93
2019-04-22T18:11:56.285Z,3.20
2019-04-22T18:14:30.053Z,4.20
2019-04-22T18:16:41.352Z,3.10
2019-04-22T18:19:11.587Z,3.57
2019-04-22T18:21:36.440Z,3.50
2019-04-22T18:24:01.392Z,3.63
2019-04-22T18:26:40.169Z,3.52
2019-04-22T18:29:11.515Z,3.83
2019-04-22T18:31:35.614Z,5.73
2019-04-22T18:34:08.797Z,4.53
2019-04-22T18:36:37.213Z,4.90
2019-04-22T18:39:20.650Z,4.47
2019-04-22T18:41:46.720Z,4.77
2019-04-22T18:44:17.956Z,3.17
2019-04-22T18:46:42.071Z,3.67
2019-04-22T18:49:10.953Z,3.10
2019-04-22T18:52:02.890Z,3.90
2019-04-22T18:54:31.045Z,3.43
2019-04-22T18:56:59.181Z,3.53
2019-04-22T18:59:19.501Z,6.60
2019-04-22T19:01:42.010Z,3.33
2019-04-22T19:04:18.886Z,3.87
2019-04-22T19:06:58.899Z,3.20
2019-04-22T19:09:36.174Z,3.17
2019-04-22T19:12:16.550Z,5.67
2019-04-22T19:14:43.719Z,5.73
2019-04-22T19:17:11.922Z,3.47
2019-04-22T19:22:03.976Z,4.20
2019-04-22T19:24:32.340Z,5.72
2019-04-22T19:27:02.292Z,5.17
2019-04-22T19:29:39.236Z,2.90
2019-04-22T19:32:04.055Z,8.27
2019-04-22T19:34:32.267Z,6.90
2019-04-22T19:37:11.102Z,2.83
2019-04-22T19:39:34.136Z,3.67
2019-04-22T19:42:14.958Z,5.87
2019-04-22T19:44:41.139Z,4.53
2019-04-22T19:49:48.118Z,3.57
2019-04-22T19:52:10.901Z,4.43
2019-04-22T19:54:40.876Z,5.90
2019-04-22T19:57:07.018Z,5.73
2019-04-22T19:59:36.380Z,5.20
2019-04-22T20:02:24.960Z,3.67
2019-04-22T20:05:01.815Z,3.87
2019-04-22T20:07:27.783Z,3.70
2019-04-22T20:10:00.157Z,2.97
2019-04-22T20:12:24.717Z,5.90
2019-04-22T20:14:55.706Z,5.67
2019-04-22T20:17:41.508Z,3.67
2019-04-22T20:20:06.371Z,4.23
2019-04-22T20:22:30.245Z,4.37
2019-04-22T20:24:51.320Z,5.03
2019-04-22T20:27:30.291Z,4.03
2019-04-22T20:30:04.718Z,3.03
2019-04-22T20:32:32.591Z,2.70
2019-04-22T20:35:02.703Z,3.63
2019-04-22T20:37:37.102Z,4.93
2019-04-22T20:40:00.843Z,4.97
2019-04-22T20:45:05.408Z,4.67
2019-04-22T20:47:29.172Z,2.73
2019-04-22T20:50:05.477Z,4.57
2019-04-22T20:52:38.689Z,4.20
2019-04-22T20:54:58.677Z,3.33
2019-04-22T20:57:34.631Z,2.77
2019-04-22T20:59:55.863Z,4.13
2019-04-22T21:02:29.071Z,4.13
2019-04-22T21:04:52.045Z,3.47
2019-04-22T21:07:26.724Z,2.90
2019-04-22T21:10:01.222Z,7.00
2019-04-22T21:12:24.940Z,4.97
2019-04-22T21:15:06.811Z,2.90
2019-04-22T21:17:34.899Z,4.20
2019-04-22T21:20:10.088Z,6.10
2019-04-22T21:22:33.849Z,5.50
2019-04-22T21:25:02.173Z,5.00
2019-04-22T21:27:40.808Z,3.87
2019-04-22T21:29:58.237Z,3.87
2019-04-22T21:32:34.518Z,3.87
2019-04-22T21:35:15.264Z,5.53
2019-04-22T21:40:10.702Z,5.10
2019-04-22T21:42:46.027Z,3.80
2019-04-22T21:45:04.739Z,3.33
2019-04-22T21:47:45.927Z,5.80
2019-04-22T21:50:31.009Z,7.67
2019-04-22T21:52:42.560Z,4.80
2019-04-22T21:55:10.191Z,3.73
2019-04-22T21:58:02.618Z,3.67
2019-04-22T22:03:11.328Z,6.47
2019-04-22T22:05:29.713Z,4.23
2019-04-22T22:07:55.864Z,3.97
2019-04-22T22:10:43.354Z,6.20
2019-04-22T22:13:06.298Z,3.63
2019-04-22T22:15:37.696Z,4.57
2019-04-22T22:18:02.280Z,6.13
2019-04-22T22:20:40.543Z,4.07
2019-04-22T22:23:16.100Z,6.77
2019-04-22T22:25:33.633Z,4.93
2019-04-22T22:28:29.410Z,2.30
2019-04-22T22:30:48.473Z,6.43
2019-04-22T22:33:10.496Z,2.50
2019-04-22T22:35:38.285Z,4.47
2019-04-22T22:38:11.975Z,4.67
2019-04-22T22:40:26.361Z,5.42
2019-04-22T22:42:53.471Z,2.10
2019-04-22T22:45:32.748Z,2.85
2019-04-22T22:48:18.858Z,8.90
2019-04-22T22:50:43.129Z,2.93
2019-04-22T22:53:25.599Z,3.60
2019-04-22T22:55:40.550Z,2.20
2019-04-22T22:58:17.704Z,2.73
2019-04-22T23:00:39.456Z,3.93
2019-04-22T23:05:54.985Z,3.27
2019-04-22T23:08:22.708Z,3.70
2019-04-22T23:10:55.609Z,2.77
2019-04-22T23:13:22.106Z,3.77
2019-04-22T23:15:40.510Z,4.77
2019-04-22T23:17:56.176Z,2.80
2019-04-22T23:20:31.024Z,6.57
2019-04-22T23:23:17.277Z,5.80
2019-04-22T23:26:03.857Z,4.97
2019-04-22T23:28:44.581Z,2.03
2019-04-22T23:31:14.372Z,6.47
2019-04-22T23:34:04.254Z,5.23
2019-04-22T23:36:38.370Z,5.03
2019-04-22T23:39:17.155Z,2.23
2019-04-22T23:41:51.129Z,3.93
2019-04-22T23:44:13.485Z,3.50
2019-04-22T23:46:41.183Z,4.72
2019-04-22T23:49:11.843Z,3.00
2019-04-22T23:51:57.568Z,3.00
2019-04-22T23:54:18.737Z,4.43
2019-04-22T23:56:43.456Z,5.87
2019-04-22T23:59:38.673Z,2.47
